Time;durP1;ratioP1;P1;durP2;ratioP2;P2;SDS_P1;SDS_P2;PMS_P1;PMS_P2;Temp;Humidity;BMP_temperature;BMP_pressure;BME280_temperature;BME280_humidity;BME280_pressure;Samples;Min_cycle;Max_cycle;Signal;HPM_P1;HPM_P2
2024/02/27 00:02:04;;;;;;;5.83;1.17;;;;;;;;;;4985395;28;86304;-55
2024/02/27 00:04:29;;;;;;;2.57;1.23;;;;;;;;;;4982399;28;87513;-57
2024/02/27 00:06:55;;;;;;;4.17;0.83;;;;;;;;;;4985837;28;87196;-53
2024/02/27 00:09:21;;;;;;;4.53;1.55;;;;;;;;;;4979659;28;88337;-55
2024/02/27 00:11:47;;;;;;;4.03;1.30;;;;;;;;;;4981545;28;87258;-56
2024/02/27 00:14:12;;;;;;;5.77;1.30;;;;;;;;;;4977060;28;87123;-52
2024/02/27 00:16:37;;;;;;;4.47;1.30;;;;;;;;;;4981183;28;87215;-56
2024/02/27 00:19:03;;;;;;;4.33;1.70;;;;;;;;;;4985842;28;87206;-56
2024/02/27 00:21:28;;;;;;;1.83;1.00;;;;;;;;;;4981018;28;88322;-56
2024/02/27 00:23:54;;;;;;;3.03;1.17;;;;;;;;;;4979255;28;87555;-56
2024/02/27 00:26:19;;;;;;;4.47;1.07;;;;;;;;;;4981811;28;86988;-55
2024/02/27 00:28:44;;;;;;;2.03;1.27;;;;;;;;;;4985862;28;87295;-56
2024/02/27 00:31:09;;;;;;;1.73;0.85;;;;;;;;;;4984129;28;87029;-55
2024/02/27 00:33:35;;;;;;;3.60;1.10;;;;;;;;;;4981948;28;88365;-55
2024/02/27 00:36:00;;;;;;;2.83;1.00;;;;;;;;;;4984010;28;87093;-55
2024/02/27 00:38:26;;;;;;;3.33;1.05;;;;;;;;;;4983163;28;87366;-55
2024/02/27 00:40:52;;;;;;;3.17;1.10;;;;;;;;;;4982498;28;88874;-56
2024/02/27 00:43:17;;;;;;;4.33;0.97;;;;;;;;;;4986084;28;87557;-52
2024/02/27 00:45:43;;;;;;;2.60;1.00;;;;;;;;;;4980038;28;88336;-56
2024/02/27 00:48:08;;;;;;;4.03;0.93;;;;;;;;;;4988071;28;87612;-55
2024/02/27 00:50:33;;;;;;;4.53;1.30;;;;;;;;;;4983934;28;86887;-52
2024/02/27 00:52:58;;;;;;;2.20;1.00;;;;;;;;;;4987866;28;87380;-55
2024/02/27 00:55:23;;;;;;;2.93;0.90;;;;;;;;;;4984093;28;87026;-56
2024/02/27 00:57:49;;;;;;;2.97;1.23;;;;;;;;;;4978273;28;89434;-53
2024/02/27 01:00:14;;;;;;;2.37;1.30;;;;;;;;;;4981419;28;87087;-55
2024/02/27 01:02:41;;;;;;;1.98;0.90;;;;;;;;;;4982679;28;87305;-56
2024/02/27 01:05:07;;;;;;;5.07;1.13;;;;;;;;;;4979289;28;87692;-57
2024/02/27 01:07:32;;;;;;;1.63;1.10;;;;;;;;;;4983133;28;87298;-56
2024/02/27 01:09:58;;;;;;;1.23;0.87;;;;;;;;;;4988767;28;88029;-55
2024/02/27 01:12:23;;;;;;;1.90;1.00;;;;;;;;;;4978184;28;87292;-55
2024/02/27 01:14:48;;;;;;;2.13;1.08;;;;;;;;;;4986469;28;87391;-53
2024/02/27 01:17:14;;;;;;;3.07;1.17;;;;;;;;;;4981298;28;88005;-55
2024/02/27 01:19:39;;;;;;;3.83;1.10;;;;;;;;;;4981726;28;87398;-54
2024/02/27 01:22:04;;;;;;;1.90;1.00;;;;;;;;;;4982285;28;88322;-54
2024/02/27 01:24:30;;;;;;;1.90;1.03;;;;;;;;;;4977646;28;88610;-56
2024/02/27 01:26:55;;;;;;;3.47;1.07;;;;;;;;;;4979931;28;87450;-55
2024/02/27 01:29:20;;;;;;;2.30;1.17;;;;;;;;;;4968422;28;88047;-54
2024/02/27 01:31:45;;;;;;;1.87;1.00;;;;;;;;;;4979423;28;87894;-55
2024/02/27 01:34:11;;;;;;;2.80;1.03;;;;;;;;;;4979847;28;87105;-53
2024/02/27 01:36:37;;;;;;;4.15;1.38;;;;;;;;;;4979201;28;87905;-57
2024/02/27 01:39:04;;;;;;;1.60;0.80;;;;;;;;;;4986078;28;86946;-55
2024/02/27 01:41:29;;;;;;;2.13;0.93;;;;;;;;;;4961427;28;87431;-55
2024/02/27 01:43:55;;;;;;;1.70;1.00;;;;;;;;;;4984357;28;87477;-54
2024/02/27 01:46:21;;;;;;;1.60;0.97;;;;;;;;;;4980376;28;87865;-56
2024/02/27 01:48:46;;;;;;;3.00;1.00;;;;;;;;;;4985678;28;88357;-56
2024/02/27 01:51:13;;;;;;;1.93;0.90;;;;;;;;;;4978995;28;87585;-57
2024/02/27 01:53:39;;;;;;;2.65;1.17;;;;;;;;;;4983502;28;87109;-56
2024/02/27 01:56:04;;;;;;;1.85;1.00;;;;;;;;;;4980813;28;88931;-57
2024/02/27 01:58:30;;;;;;;2.17;0.87;;;;;;;;;;4982553;28;87015;-55
2024/02/27 02:00:55;;;;;;;3.70;1.13;;;;;;;;;;4979083;28;87542;-54
2024/02/27 02:03:22;;;;;;;4.23;1.13;;;;;;;;;;4988943;28;89556;-55
2024/02/27 02:05:47;;;;;;;2.20;1.02;;;;;;;;;;4986294;28;87207;-53
2024/02/27 02:08:13;;;;;;;4.83;1.00;;;;;;;;;;4981027;28;87755;-55
2024/02/27 02:10:38;;;;;;;2.60;1.00;;;;;;;;;;4980902;28;88143;-53
2024/02/27 02:13:03;;;;;;;2.40;0.90;;;;;;;;;;4980718;28;87152;-56
2024/02/27 02:15:29;;;;;;;2.83;1.20;;;;;;;;;;4986681;28;87444;-55
2024/02/27 02:17:54;;;;;;;1.73;0.90;;;;;;;;;;4976152;28;88313;-54
2024/02/27 02:20:19;;;;;;;1.87;1.03;;;;;;;;;;4980545;28;87444;-56
2024/02/27 02:22:44;;;;;;;1.90;1.10;;;;;;;;;;4980069;28;87534;-56
2024/02/27 02:25:13;;;;;;;2.10;1.03;;;;;;;;;;4982809;28;88577;-55
2024/02/27 02:27:41;;;;;;;4.30;0.98;;;;;;;;;;4980342;28;87251;-53
2024/02/27 02:30:07;;;;;;;2.58;0.93;;;;;;;;;;4979771;28;86985;-56
2024/02/27 02:32:32;;;;;;;2.17;1.10;;;;;;;;;;4976949;28;87068;-56
2024/02/27 02:34:57;;;;;;;2.70;1.00;;;;;;;;;;4983101;28;88113;-54
2024/02/27 02:37:26;;;;;;;2.63;1.23;;;;;;;;;;4976854;28;87635;-56
2024/02/27 02:39:51;;;;;;;2.28;1.23;;;;;;;;;;4976845;28;87019;-54
2024/02/27 02:42:16;;;;;;;1.20;1.07;;;;;;;;;;4979284;28;88239;-55
2024/02/27 02:44:42;;;;;;;1.90;0.80;;;;;;;;;;4980415;28;87574;-56
2024/02/27 02:47:07;;;;;;;1.40;0.93;;;;;;;;;;4985801;28;86932;-55
2024/02/27 02:49:32;;;;;;;1.57;0.97;;;;;;;;;;4986658;28;87062;-56
2024/02/27 02:51:58;;;;;;;1.30;0.80;;;;;;;;;;4980616;28;87045;-56
2024/02/27 02:54:23;;;;;;;2.57;1.10;;;;;;;;;;4988802;28;87024;-55
2024/02/27 02:56:48;;;;;;;2.50;1.10;;;;;;;;;;4990226;28;87915;-55
2024/02/27 02:59:13;;;;;;;1.00;0.80;;;;;;;;;;4985225;28;87837;-53
2024/02/27 03:01:39;;;;;;;1.63;1.00;;;;;;;;;;4983952;28;87170;-52
2024/02/27 03:04:04;;;;;;;3.00;1.30;;;;;;;;;;4982252;28;88322;-53
2024/02/27 03:06:29;;;;;;;2.13;1.10;;;;;;;;;;4984196;28;87469;-54
2024/02/27 03:08:55;;;;;;;2.70;1.00;;;;;;;;;;4980993;28;87495;-56
2024/02/27 03:11:20;;;;;;;1.90;1.10;;;;;;;;;;4983641;28;87988;-56
2024/02/27 03:13:45;;;;;;;1.70;1.00;;;;;;;;;;4979763;28;87684;-56
2024/02/27 03:16:11;;;;;;;2.13;0.97;;;;;;;;;;4980564;28;86824;-56
2024/02/27 03:18:37;;;;;;;1.55;0.93;;;;;;;;;;4982316;28;86994;-56
2024/02/27 03:21:02;;;;;;;2.83;0.85;;;;;;;;;;4982212;28;87791;-56
2024/02/27 03:23:27;;;;;;;1.80;1.17;;;;;;;;;;4985313;28;88819;-53
2024/02/27 03:25:52;;;;;;;1.97;1.07;;;;;;;;;;4983608;28;88204;-55
2024/02/27 03:28:18;;;;;;;1.57;0.90;;;;;;;;;;4978907;28;87626;-53
2024/02/27 03:30:43;;;;;;;2.33;1.00;;;;;;;;;;4987075;28;87407;-57
2024/02/27 03:33:08;;;;;;;1.33;1.00;;;;;;;;;;4983418;28;87828;-56
2024/02/27 03:35:33;;;;;;;2.70;1.00;;;;;;;;;;4984167;28;87546;-56
2024/02/27 03:37:58;;;;;;;1.30;0.70;;;;;;;;;;4983823;28;87051;-56
2024/02/27 03:40:24;;;;;;;4.00;1.03;;;;;;;;;;4982669;28;86964;-55
2024/02/27 03:42:49;;;;;;;1.60;1.00;;;;;;;;;;4981934;28;87073;-56
2024/02/27 03:45:14;;;;;;;3.03;1.10;;;;;;;;;;4978686;28;87096;-55
2024/02/27 03:47:39;;;;;;;1.77;1.10;;;;;;;;;;4976781;28;89753;-57
2024/02/27 03:50:05;;;;;;;1.83;1.20;;;;;;;;;;4988294;28;87172;-55
2024/02/27 03:52:30;;;;;;;1.88;1.00;;;;;;;;;;4983709;28;88693;-56
2024/02/27 03:54:55;;;;;;;2.42;1.27;;;;;;;;;;4981309;28;87055;-54
2024/02/27 03:57:21;;;;;;;4.27;1.00;;;;;;;;;;4986147;28;87310;-56
2024/02/27 03:59:46;;;;;;;1.53;0.90;;;;;;;;;;4982551;28;87207;-57
2024/02/27 04:02:11;;;;;;;2.70;1.20;;;;;;;;;;4978544;28;88061;-53
2024/02/27 04:04:36;;;;;;;1.77;0.90;;;;;;;;;;4981369;28;86605;-55
2024/02/27 04:07:02;;;;;;;1.27;0.97;;;;;;;;;;4983160;28;89497;-56
2024/02/27 04:09:27;;;;;;;2.00;0.90;;;;;;;;;;4982730;28;86968;-55
2024/02/27 04:11:52;;;;;;;1.43;0.90;;;;;;;;;;4983735;28;88355;-57
2024/02/27 04:14:17;;;;;;;1.70;1.10;;;;;;;;;;4977528;28;87814;-56
2024/02/27 04:16:42;;;;;;;3.92;1.40;;;;;;;;;;4988612;28;87341;-57
2024/02/27 04:19:08;;;;;;;1.97;1.10;;;;;;;;;;4981454;28;87269;-54
2024/02/27 04:21:33;;;;;;;2.20;1.40;;;;;;;;;;4978604;28;87368;-56
2024/02/27 04:23:58;;;;;;;2.57;0.90;;;;;;;;;;4984366;28;86940;-55
2024/02/27 04:26:23;;;;;;;1.20;1.00;;;;;;;;;;4979034;28;88002;-56
2024/02/27 04:28:49;;;;;;;1.80;1.17;;;;;;;;;;4983909;28;86418;-57
2024/02/27 04:31:14;;;;;;;3.23;1.30;;;;;;;;;;4986852;28;87773;-56
2024/02/27 04:33:40;;;;;;;2.10;1.20;;;;;;;;;;4977212;28;87323;-57
2024/02/27 04:36:07;;;;;;;1.95;1.23;;;;;;;;;;4987997;28;88075;-54
2024/02/27 04:38:32;;;;;;;1.63;1.17;;;;;;;;;;4975931;28;87843;-56
2024/02/27 04:40:57;;;;;;;3.83;1.20;;;;;;;;;;4985731;28;88152;-55
2024/02/27 04:43:22;;;;;;;1.43;0.80;;;;;;;;;;4985190;28;87558;-52
2024/02/27 04:45:48;;;;;;;1.55;1.00;;;;;;;;;;4990064;28;87571;-56
2024/02/27 04:48:13;;;;;;;3.70;1.20;;;;;;;;;;4983786;28;87958;-56
2024/02/27 04:50:38;;;;;;;1.93;0.90;;;;;;;;;;4982785;28;87159;-56
2024/02/27 04:53:03;;;;;;;1.33;0.80;;;;;;;;;;4981257;28;86795;-56
2024/02/27 04:55:29;;;;;;;2.83;1.40;;;;;;;;;;4979465;28;87259;-54
2024/02/27 04:57:54;;;;;;;1.65;1.00;;;;;;;;;;4987256;28;87121;-56
2024/02/27 05:00:20;;;;;;;2.05;0.98;;;;;;;;;;4984931;28;88873;-57
2024/02/27 05:02:45;;;;;;;1.60;0.87;;;;;;;;;;4984199;28;87010;-56
2024/02/27 05:05:10;;;;;;;2.07;1.10;;;;;;;;;;4982322;28;87231;-56
2024/02/27 05:07:35;;;;;;;2.67;0.97;;;;;;;;;;4982064;28;87810;-57
2024/02/27 05:10:01;;;;;;;1.63;1.03;;;;;;;;;;4977671;28;88291;-54
2024/02/27 05:12:26;;;;;;;1.87;1.03;;;;;;;;;;4985304;28;87433;-54
2024/02/27 05:14:51;;;;;;;4.17;1.30;;;;;;;;;;4982652;28;87992;-54
2024/02/27 05:17:17;;;;;;;1.90;1.20;;;;;;;;;;4984675;28;87245;-55
2024/02/27 05:19:42;;;;;;;1.63;1.00;;;;;;;;;;4978998;28;87510;-56
2024/02/27 05:22:07;;;;;;;4.30;1.07;;;;;;;;;;4983089;28;87319;-55
2024/02/27 05:24:32;;;;;;;3.10;1.00;;;;;;;;;;4979587;28;88200;-54
2024/02/27 05:26:58;;;;;;;1.67;1.00;;;;;;;;;;4984109;28;87248;-56
2024/02/27 05:29:23;;;;;;;2.00;1.10;;;;;;;;;;4982699;28;87292;-55
2024/02/27 05:31:48;;;;;;;1.60;1.03;;;;;;;;;;4984621;28;87356;-55
2024/02/27 05:34:13;;;;;;;2.72;0.95;;;;;;;;;;4983802;28;87066;-55
2024/02/27 05:36:39;;;;;;;2.67;1.10;;;;;;;;;;4981704;28;87054;-55
2024/02/27 05:39:04;;;;;;;2.93;1.10;;;;;;;;;;4979694;28;87641;-55
2024/02/27 05:41:29;;;;;;;2.10;1.10;;;;;;;;;;4983416;28;86954;-55
2024/02/27 05:43:55;;;;;;;2.60;1.10;;;;;;;;;;4978534;28;87099;-54
2024/02/27 05:46:20;;;;;;;3.50;1.43;;;;;;;;;;4981606;28;87824;-56
2024/02/27 05:48:45;;;;;;;2.40;1.13;;;;;;;;;;4983744;28;88524;-57
2024/02/27 05:51:11;;;;;;;1.57;1.03;;;;;;;;;;4982822;28;87197;-55
2024/02/27 05:53:36;;;;;;;1.25;1.00;;;;;;;;;;4983213;28;87184;-52
2024/02/27 05:56:02;;;;;;;1.95;1.10;;;;;;;;;;4981304;28;87682;-54
2024/02/27 05:58:27;;;;;;;4.07;1.20;;;;;;;;;;4982444;28;88154;-54
2024/02/27 06:00:54;;;;;;;1.40;0.90;;;;;;;;;;4981424;28;87565;-57
2024/02/27 06:03:19;;;;;;;2.20;1.17;;;;;;;;;;4986435;28;87512;-47
2024/02/27 06:05:45;;;;;;;4.07;1.03;;;;;;;;;;4980655;28;86372;-56
2024/02/27 06:08:10;;;;;;;2.40;0.90;;;;;;;;;;4979590;28;87565;-57
2024/02/27 06:10:36;;;;;;;2.80;1.10;;;;;;;;;;4980448;28;87741;-57
2024/02/27 06:13:01;;;;;;;1.37;1.00;;;;;;;;;;4979143;28;88113;-55
2024/02/27 06:15:26;;;;;;;1.50;0.97;;;;;;;;;;4976667;28;88040;-55
2024/02/27 06:17:51;;;;;;;2.10;0.90;;;;;;;;;;4975670;28;88103;-56
2024/02/27 06:23:01;;;;;;;2.08;1.15;;;;;;;;;;4977401;28;87381;-53
2024/02/27 06:25:26;;;;;;;2.30;1.27;;;;;;;;;;4979093;28;88601;-54
2024/02/27 06:27:52;;;;;;;2.40;1.17;;;;;;;;;;4989774;28;87335;-52
2024/02/27 06:30:18;;;;;;;3.13;1.40;;;;;;;;;;4986676;28;87377;-56
2024/02/27 06:32:43;;;;;;;4.10;1.42;;;;;;;;;;4989460;28;88065;-57
2024/02/27 06:35:11;;;;;;;1.53;1.10;;;;;;;;;;4983937;28;87738;-56
2024/02/27 06:37:37;;;;;;;2.17;1.10;;;;;;;;;;4976949;28;89755;-57
2024/02/27 06:40:03;;;;;;;5.83;1.20;;;;;;;;;;4976120;28;89474;-55
2024/02/27 06:42:34;;;;;;;3.63;1.58;;;;;;;;;;4986364;28;87544;-56
2024/02/27 06:45:01;;;;;;;3.63;1.37;;;;;;;;;;4989327;28;87094;-54
2024/02/27 06:47:26;;;;;;;3.75;1.63;;;;;;;;;;4988533;28;86935;-55
2024/02/27 06:49:52;;;;;;;2.97;0.90;;;;;;;;;;4986918;28;87128;-54
2024/02/27 06:52:17;;;;;;;4.83;1.40;;;;;;;;;;4977598;28;87813;-54
2024/02/27 06:54:42;;;;;;;1.90;1.10;;;;;;;;;;4988379;28;86098;-56
2024/02/27 06:57:07;;;;;;;2.20;1.20;;;;;;;;;;4981669;28;87575;-54
2024/02/27 06:59:32;;;;;;;4.47;1.43;;;;;;;;;;4986299;28;88214;-55
2024/02/27 07:01:58;;;;;;;2.00;1.50;;;;;;;;;;4979940;28;88885;-56
2024/02/27 07:04:23;;;;;;;4.87;1.30;;;;;;;;;;4986206;28;88947;-56
2024/02/27 07:06:48;;;;;;;5.10;1.80;;;;;;;;;;4978296;28;87064;-54
2024/02/27 07:09:13;;;;;;;2.50;1.50;;;;;;;;;;4980191;28;87059;-56
2024/02/27 07:11:39;;;;;;;6.15;1.83;;;;;;;;;;4979414;28;87520;-55
2024/02/27 07:14:04;;;;;;;2.27;1.20;;;;;;;;;;4984390;28;87133;-53
2024/02/27 07:16:29;;;;;;;3.60;1.80;;;;;;;;;;4979208;28;87332;-56
2024/02/27 07:18:54;;;;;;;2.20;1.20;;;;;;;;;;4985329;28;86605;-54
2024/02/27 07:21:19;;;;;;;5.60;1.60;;;;;;;;;;4983334;28;86933;-56
2024/02/27 07:23:45;;;;;;;5.17;1.70;;;;;;;;;;4983940;28;87042;-53
2024/02/27 07:26:10;;;;;;;4.17;1.47;;;;;;;;;;4978965;28;88472;-56
2024/02/27 07:28:35;;;;;;;3.20;1.60;;;;;;;;;;4988273;28;88334;-56
2024/02/27 07:31:01;;;;;;;2.43;1.47;;;;;;;;;;4978700;28;88146;-56
2024/02/27 07:33:26;;;;;;;2.37;1.63;;;;;;;;;;4979178;28;87174;-52
2024/02/27 07:35:51;;;;;;;3.70;1.40;;;;;;;;;;4983108;28;87105;-55
2024/02/27 07:38:16;;;;;;;2.10;1.50;;;;;;;;;;4977111;28;88132;-55
2024/02/27 07:40:41;;;;;;;4.97;1.57;;;;;;;;;;4979398;28;87299;-54
2024/02/27 07:43:07;;;;;;;4.33;1.60;;;;;;;;;;4986838;28;87039;-56
2024/02/27 07:45:33;;;;;;;5.40;1.40;;;;;;;;;;4979181;28;87629;-56
2024/02/27 07:47:58;;;;;;;5.27;1.50;;;;;;;;;;4981222;28;87293;-56
2024/02/27 07:50:23;;;;;;;2.73;1.33;;;;;;;;;;4984686;28;88127;-53
2024/02/27 07:52:49;;;;;;;3.30;1.43;;;;;;;;;;4980682;28;87071;-50
2024/02/27 07:55:14;;;;;;;3.70;1.40;;;;;;;;;;4980661;28;88368;-57
2024/02/27 07:57:39;;;;;;;5.63;2.00;;;;;;;;;;4976219;28;87746;-51
2024/02/27 08:00:05;;;;;;;2.13;1.47;;;;;;;;;;4974875;28;87746;-53
2024/02/27 08:02:30;;;;;;;3.87;1.77;;;;;;;;;;4982623;28;87223;-50
2024/02/27 08:04:55;;;;;;;3.40;1.80;;;;;;;;;;4977854;28;87074;-54
2024/02/27 08:07:21;;;;;;;2.57;1.30;;;;;;;;;;4980128;28;86264;-53
2024/02/27 08:09:46;;;;;;;4.30;1.50;;;;;;;;;;4982227;28;87933;-53
2024/02/27 08:12:12;;;;;;;5.70;1.40;;;;;;;;;;4980249;28;87190;-53
2024/02/27 08:14:37;;;;;;;3.72;1.85;;;;;;;;;;4978332;28;88558;-52
2024/02/27 08:17:02;;;;;;;4.10;1.60;;;;;;;;;;4980540;28;87339;-54
2024/02/27 08:19:28;;;;;;;3.97;1.60;;;;;;;;;;4980539;28;87007;-53
2024/02/27 08:21:53;;;;;;;3.57;1.37;;;;;;;;;;4975342;28;87003;-55
2024/02/27 08:24:18;;;;;;;4.30;1.60;;;;;;;;;;4974159;28;87679;-53
2024/02/27 08:26:45;;;;;;;5.13;1.80;;;;;;;;;;4977807;28;88661;-53
2024/02/27 08:29:10;;;;;;;3.28;1.48;;;;;;;;;;4983867;28;87593;-54
2024/02/27 08:31:35;;;;;;;5.00;1.60;;;;;;;;;;4978452;28;86191;-53
2024/02/27 08:34:04;;;;;;;3.70;1.77;;;;;;;;;;4979342;28;86980;-55
2024/02/27 08:36:30;;;;;;;5.88;1.50;;;;;;;;;;4977530;28;87206;-53
2024/02/27 08:38:55;;;;;;;2.57;1.30;;;;;;;;;;4979386;28;88928;-56
2024/02/27 08:41:21;;;;;;;6.37;1.53;;;;;;;;;;4979844;28;88328;-52
2024/02/27 08:43:47;;;;;;;3.25;1.35;;;;;;;;;;4982859;28;87353;-53
2024/02/27 08:46:18;;;;;;;7.77;1.30;;;;;;;;;;4986803;28;89359;-54
2024/02/27 08:48:46;;;;;;;3.63;1.65;;;;;;;;;;4980936;28;87192;-54
2024/02/27 08:51:12;;;;;;;4.43;1.85;;;;;;;;;;4985727;28;87420;-54
2024/02/27 08:53:37;;;;;;;3.30;1.93;;;;;;;;;;4979959;28;87529;-51
2024/02/27 08:56:06;;;;;;;3.28;1.60;;;;;;;;;;4978594;28;87617;-55
2024/02/27 08:58:31;;;;;;;5.25;1.50;;;;;;;;;;4979500;28;87400;-54
2024/02/27 09:00:56;;;;;;;4.63;1.80;;;;;;;;;;4983709;28;87859;-54
2024/02/27 09:03:22;;;;;;;3.00;1.40;;;;;;;;;;4976687;28;88077;-56
2024/02/27 09:05:47;;;;;;;3.37;1.90;;;;;;;;;;4978066;28;87345;-55
2024/02/27 09:08:14;;;;;;;3.83;1.63;;;;;;;;;;4980195;28;86996;-55
2024/02/27 09:10:39;;;;;;;4.10;1.65;;;;;;;;;;4980305;28;87666;-56
2024/02/27 09:13:04;;;;;;;4.80;1.87;;;;;;;;;;4978486;28;87019;-52
2024/02/27 09:15:29;;;;;;;5.23;2.07;;;;;;;;;;4985041;28;88011;-56
2024/02/27 09:17:54;;;;;;;2.80;1.47;;;;;;;;;;4978470;28;86993;-56
2024/02/27 09:20:20;;;;;;;1.80;1.37;;;;;;;;;;4980721;28;87514;-54
2024/02/27 09:22:46;;;;;;;3.83;1.70;;;;;;;;;;4979953;28;88087;-54
2024/02/27 09:25:13;;;;;;;2.13;1.43;;;;;;;;;;4981010;28;87412;-55
2024/02/27 09:27:38;;;;;;;2.40;1.88;;;;;;;;;;4977843;28;88599;-54
2024/02/27 09:30:04;;;;;;;3.07;1.70;;;;;;;;;;4979817;28;86977;-54
2024/02/27 09:32:30;;;;;;;4.20;1.80;;;;;;;;;;4981491;28;87993;-54
2024/02/27 09:34:55;;;;;;;4.10;1.57;;;;;;;;;;4978832;28;87833;-56
2024/02/27 09:37:22;;;;;;;5.03;2.00;;;;;;;;;;4985435;28;87224;-54
2024/02/27 09:39:47;;;;;;;2.57;1.50;;;;;;;;;;4978718;28;87359;-55
2024/02/27 09:42:12;;;;;;;2.40;1.60;;;;;;;;;;4983526;28;89228;-63
2024/02/27 09:44:41;;;;;;;3.17;2.00;;;;;;;;;;4982093;28;86429;-64
2024/02/27 09:47:10;;;;;;;5.33;2.43;;;;;;;;;;4978259;28;89024;-56
2024/02/27 09:49:45;;;;;;;2.97;2.10;;;;;;;;;;4977205;28;87627;-55
2024/02/27 09:52:14;;;;;;;4.30;2.40;;;;;;;;;;4973780;28;88164;-55
2024/02/27 09:54:39;;;;;;;5.85;2.35;;;;;;;;;;4973911;28;87515;-56
2024/02/27 09:57:05;;;;;;;4.18;2.08;;;;;;;;;;4978530;28;87261;-54
2024/02/27 09:59:31;;;;;;;3.17;2.20;;;;;;;;;;4974240;28;88584;-56
2024/02/27 10:02:08;;;;;;;4.80;2.10;;;;;;;;;;4973660;28;86987;-55
2024/02/27 10:04:34;;;;;;;6.47;2.88;;;;;;;;;;4973556;28;89141;-54
2024/02/27 10:07:00;;;;;;;6.78;2.22;;;;;;;;;;4979248;28;87378;-54
2024/02/27 10:09:26;;;;;;;6.53;2.50;;;;;;;;;;4976119;28;86483;-54
2024/02/27 10:11:51;;;;;;;5.75;2.45;;;;;;;;;;4974758;28;87866;-54
2024/02/27 10:14:33;;;;;;;3.70;2.40;;;;;;;;;;4975735;28;87007;-55
2024/02/27 10:16:59;;;;;;;5.13;2.27;;;;;;;;;;4974460;28;88561;-55
2024/02/27 10:19:27;;;;;;;6.10;2.70;;;;;;;;;;4975405;28;89121;-55
2024/02/27 10:21:54;;;;;;;6.90;2.50;;;;;;;;;;4973026;28;87860;-56
2024/02/27 10:24:25;;;;;;;7.15;2.03;;;;;;;;;;4975157;28;88782;-54
2024/02/27 10:26:52;;;;;;;8.00;2.17;;;;;;;;;;4974951;28;87876;-56
2024/02/27 10:29:18;;;;;;;3.85;2.13;;;;;;;;;;4978156;28;87553;-53
2024/02/27 10:31:43;;;;;;;5.70;2.30;;;;;;;;;;4974259;28;87463;-56
2024/02/27 10:34:08;;;;;;;4.43;2.20;;;;;;;;;;4974326;28;87059;-56
2024/02/27 10:36:33;;;;;;;4.60;2.10;;;;;;;;;;4975032;28;87668;-55
2024/02/27 10:39:11;;;;;;;5.90;2.40;;;;;;;;;;4973639;28;87649;-54
2024/02/27 10:41:42;;;;;;;7.28;2.20;;;;;;;;;;4970634;28;88791;-54
2024/02/27 10:44:08;;;;;;;6.43;2.00;;;;;;;;;;4973671;28;87132;-56
2024/02/27 10:46:36;;;;;;;4.43;1.83;;;;;;;;;;4976064;28;87918;-54
2024/02/27 10:49:02;;;;;;;4.35;1.83;;;;;;;;;;4970170;28;89491;-54
2024/02/27 10:51:28;;;;;;;3.58;1.65;;;;;;;;;;4977371;28;87409;-56
2024/02/27 10:53:55;;;;;;;3.47;2.40;;;;;;;;;;4974046;28;87355;-53
2024/02/27 10:56:22;;;;;;;2.40;1.70;;;;;;;;;;4971740;28;88282;-56
2024/02/27 10:58:47;;;;;;;2.70;1.73;;;;;;;;;;4976804;28;87377;-56
2024/02/27 11:01:13;;;;;;;2.85;1.65;;;;;;;;;;4977241;28;87073;-55
2024/02/27 11:03:41;;;;;;;4.70;2.10;;;;;;;;;;4976102;28;89879;-55
2024/02/27 11:06:12;;;;;;;4.55;1.98;;;;;;;;;;4980498;28;88751;-52
2024/02/27 11:08:38;;;;;;;3.25;2.17;;;;;;;;;;4981445;28;87767;-53
2024/02/27 11:11:03;;;;;;;3.75;2.10;;;;;;;;;;4987415;28;87144;-56
2024/02/27 11:13:29;;;;;;;4.00;1.87;;;;;;;;;;4979678;28;87673;-56
2024/02/27 11:15:54;;;;;;;5.13;1.93;;;;;;;;;;4985878;28;87190;-64
2024/02/27 11:18:22;;;;;;;4.07;1.97;;;;;;;;;;4981970;28;87641;-56
2024/02/27 11:20:47;;;;;;;2.53;2.00;;;;;;;;;;4959581;28;87856;-55
2024/02/27 11:23:12;;;;;;;4.23;1.83;;;;;;;;;;4981510;28;86855;-55
2024/02/27 11:25:38;;;;;;;3.50;2.10;;;;;;;;;;4981393;28;87242;-53
2024/02/27 11:28:03;;;;;;;8.17;1.70;;;;;;;;;;4978498;28;87656;-57
2024/02/27 11:30:28;;;;;;;4.37;2.10;;;;;;;;;;4978479;28;88347;-57
2024/02/27 11:32:55;;;;;;;10.10;2.30;;;;;;;;;;4989247;28;88121;-59
2024/02/27 11:35:21;;;;;;;7.97;1.70;;;;;;;;;;4980809;28;87835;-56
2024/02/27 11:37:48;;;;;;;4.30;2.55;;;;;;;;;;4984858;28;87361;-56
2024/02/27 11:40:13;;;;;;;3.93;1.80;;;;;;;;;;4980358;28;88391;-56
2024/02/27 11:42:38;;;;;;;4.00;1.80;;;;;;;;;;4984740;28;87149;-54
2024/02/27 11:45:05;;;;;;;5.70;1.80;;;;;;;;;;4980573;28;87405;-56
2024/02/27 11:47:37;;;;;;;7.72;3.42;;;;;;;;;;4974237;28;86421;-54
2024/02/27 11:50:03;;;;;;;7.97;2.40;;;;;;;;;;4976666;28;86951;-55
2024/02/27 11:52:33;;;;;;;7.75;2.15;;;;;;;;;;4986210;28;87511;-56
2024/02/27 11:55:04;;;;;;;8.17;2.00;;;;;;;;;;4983816;28;89387;-54
2024/02/27 11:57:29;;;;;;;7.57;2.72;;;;;;;;;;4981652;28;88223;-56
2024/02/27 11:59:55;;;;;;;4.37;1.87;;;;;;;;;;4979563;28;87029;-53
2024/02/27 12:02:20;;;;;;;6.67;2.27;;;;;;;;;;4980987;28;87075;-56
2024/02/27 12:04:45;;;;;;;3.80;2.23;;;;;;;;;;4977931;28;87471;-56
2024/02/27 12:07:11;;;;;;;7.67;2.23;;;;;;;;;;4976515;28;87935;-56
2024/02/27 12:09:36;;;;;;;6.93;2.13;;;;;;;;;;4977987;28;87527;-55
2024/02/27 12:12:01;;;;;;;7.40;2.00;;;;;;;;;;4987690;28;86862;-56
2024/02/27 12:14:27;;;;;;;6.20;2.33;;;;;;;;;;4979805;28;87403;-55
2024/02/27 12:16:52;;;;;;;6.43;2.23;;;;;;;;;;4983375;28;87395;-55
2024/02/27 12:19:18;;;;;;;6.32;1.90;;;;;;;;;;4976988;28;89243;-55
2024/02/27 12:21:44;;;;;;;4.03;1.83;;;;;;;;;;4980638;28;87319;-56
2024/02/27 12:24:10;;;;;;;10.13;2.23;;;;;;;;;;4979839;28;89753;-55
2024/02/27 12:26:35;;;;;;;10.40;2.10;;;;;;;;;;4985473;28;87310;-57
2024/02/27 12:29:01;;;;;;;4.27;2.03;;;;;;;;;;4979643;28;87039;-58
2024/02/27 12:31:27;;;;;;;8.50;1.93;;;;;;;;;;4977887;28;87589;-58
2024/02/27 12:33:52;;;;;;;9.10;2.37;;;;;;;;;;4981916;28;87636;-48
2024/02/27 12:36:20;;;;;;;4.00;2.00;;;;;;;;;;4985021;28;86865;-51
2024/02/27 12:38:52;;;;;;;6.22;2.00;;;;;;;;;;4983696;28;87158;-53
2024/02/27 12:41:20;;;;;;;5.63;2.30;;;;;;;;;;4978787;28;88578;-56
2024/02/27 12:43:49;;;;;;;4.63;2.10;;;;;;;;;;4984309;28;88144;-52
2024/02/27 12:46:15;;;;;;;3.40;1.83;;;;;;;;;;4982189;28;87276;-63
2024/02/27 12:48:40;;;;;;;4.97;2.33;;;;;;;;;;4982378;28;87313;-56
2024/02/27 12:51:05;;;;;;;4.27;2.20;;;;;;;;;;4975040;28;88042;-57
2024/02/27 12:53:31;;;;;;;2.60;2.17;;;;;;;;;;4979596;28;89891;-54
2024/02/27 12:55:56;;;;;;;3.33;2.00;;;;;;;;;;4978238;28;87530;-55
2024/02/27 12:58:22;;;;;;;4.87;1.70;;;;;;;;;;4978036;28;87315;-52
2024/02/27 13:00:47;;;;;;;4.55;2.35;;;;;;;;;;4981114;28;86833;-48
2024/02/27 13:03:13;;;;;;;4.50;2.17;;;;;;;;;;4986665;28;87142;-54
2024/02/27 13:05:38;;;;;;;4.17;2.10;;;;;;;;;;4984587;28;89321;-54
2024/02/27 13:08:04;;;;;;;5.07;2.23;;;;;;;;;;4977179;28;88263;-55
2024/02/27 13:10:30;;;;;;;3.22;2.10;;;;;;;;;;4979989;28;88578;-56
2024/02/27 13:13:13;;;;;;;3.63;1.80;;;;;;;;;;4977509;28;87864;-56
2024/02/27 13:15:40;;;;;;;3.78;2.00;;;;;;;;;;4979167;28;87251;-53
2024/02/27 13:18:06;;;;;;;6.13;2.53;;;;;;;;;;4978340;28;87921;-57
2024/02/27 13:20:31;;;;;;;5.10;2.57;;;;;;;;;;4982124;28;87660;-58
2024/02/27 13:22:56;;;;;;;5.63;2.03;;;;;;;;;;4979696;28;87288;-58
2024/02/27 13:25:22;;;;;;;5.00;1.90;;;;;;;;;;4983055;28;86219;-57
2024/02/27 13:27:47;;;;;;;4.83;2.00;;;;;;;;;;4979938;28;86910;-57
2024/02/27 13:30:12;;;;;;;3.43;1.80;;;;;;;;;;4981001;28;86980;-57
2024/02/27 13:32:38;;;;;;;4.93;1.93;;;;;;;;;;4980461;28;89030;-56
2024/02/27 13:35:03;;;;;;;3.67;2.20;;;;;;;;;;4980599;28;87516;-57
2024/02/27 13:37:28;;;;;;;3.73;2.10;;;;;;;;;;4981170;28;87351;-56
2024/02/27 13:39:54;;;;;;;4.87;2.00;;;;;;;;;;4979429;28;87093;-57
2024/02/27 13:42:19;;;;;;;5.37;1.97;;;;;;;;;;4977865;28;87174;-57
2024/02/27 13:44:45;;;;;;;5.57;2.00;;;;;;;;;;4982723;28;86899;-56
2024/02/27 13:47:10;;;;;;;7.27;2.37;;;;;;;;;;4981516;28;87881;-54
2024/02/27 13:49:35;;;;;;;8.90;2.70;;;;;;;;;;4987770;28;86276;-58
2024/02/27 13:52:01;;;;;;;9.87;2.40;;;;;;;;;;4979132;28;87838;-58
2024/02/27 13:54:27;;;;;;;5.33;2.30;;;;;;;;;;4984152;28;87008;-56
2024/02/27 13:56:52;;;;;;;5.88;2.35;;;;;;;;;;4974745;28;88286;-58
2024/02/27 13:59:18;;;;;;;7.67;2.50;;;;;;;;;;4984392;28;86995;-58
2024/02/27 14:01:43;;;;;;;7.03;2.40;;;;;;;;;;4976543;28;87471;-57
2024/02/27 14:04:08;;;;;;;4.77;2.23;;;;;;;;;;4980109;28;87427;-57
2024/02/27 14:06:34;;;;;;;3.87;2.23;;;;;;;;;;4976202;28;88218;-57
2024/02/27 14:08:59;;;;;;;7.60;2.33;;;;;;;;;;4978624;28;87307;-58
2024/02/27 14:11:24;;;;;;;3.78;2.25;;;;;;;;;;4980139;28;87608;-58
2024/02/27 14:13:49;;;;;;;7.53;2.67;;;;;;;;;;4981790;28;86782;-57
2024/02/27 14:16:15;;;;;;;5.63;2.03;;;;;;;;;;4977615;28;87361;-55
2024/02/27 14:18:40;;;;;;;5.27;2.43;;;;;;;;;;4980743;28;87011;-57
2024/02/27 14:21:05;;;;;;;5.53;2.40;;;;;;;;;;4978007;28;88412;-58
2024/02/27 14:23:30;;;;;;;5.85;2.22;;;;;;;;;;4981083;28;87279;-57
2024/02/27 14:25:56;;;;;;;4.47;2.27;;;;;;;;;;4980793;28;87079;-57
2024/02/27 14:28:21;;;;;;;5.57;2.07;;;;;;;;;;4983316;28;87303;-57
2024/02/27 14:30:46;;;;;;;5.50;2.47;;;;;;;;;;4982944;28;87517;-55
2024/02/27 14:33:11;;;;;;;5.07;2.10;;;;;;;;;;4977831;28;87497;-56
2024/02/27 14:35:37;;;;;;;7.27;2.40;;;;;;;;;;4983552;28;87066;-56
2024/02/27 14:38:03;;;;;;;3.72;2.17;;;;;;;;;;4980764;28;86874;-54